Time;durP1;ratioP1;P1;durP2;ratioP2;P2;SDS_P1;SDS_P2;PMS_P1;PMS_P2;Temp;Humidity;BMP_temperature;BMP_pressure;BME280_temperature;BME280_humidity;BME280_pressure;Samples;Min_cycle;Max_cycle;Signal;HPM_P1;HPM_P2
2023/11/07 11:03:37;;;;;;;10.40;4.10;;;;;;;12.37;68.68;98965.04;102711;1290;636107;-75
2023/11/07 11:06:14;;;;;;;10.60;3.80;;;;;;;12.37;68.71;98963.83;104890;1266;94652;-74
2023/11/07 11:09:10;;;;;;;13.10;4.50;;;;;;;12.37;68.78;98966.14;104811;1266;94354;-74
2023/11/07 11:11:42;;;;;;;9.00;3.80;;;;;;;12.35;68.64;98966.65;105001;1263;106455;-73
2023/11/07 11:14:10;;;;;;;10.10;4.10;;;;;;;12.35;68.78;98970.19;104869;1264;95453;-77
2023/11/07 11:16:50;;;;;;;12.30;3.70;;;;;;;12.35;68.70;98971.08;105101;1258;155394;-74
2023/11/07 11:19:45;;;;;;;12.30;4.80;;;;;;;12.36;68.69;98970.48;105675;1254;94308;-73
2023/11/07 11:22:25;;;;;;;10.40;3.70;;;;;;;12.36;68.70;98970.45;105671;1254;94277;-75
2023/11/07 11:25:41;;;;;;;9.70;3.80;;;;;;;12.36;68.70;98965.34;105286;1256;107289;-74
2023/11/07 11:28:09;;;;;;;11.90;4.10;;;;;;;12.35;68.70;98961.09;105540;1252;95606;-74
2023/11/07 11:30:54;;;;;;;10.70;3.70;;;;;;;12.35;68.79;98957.56;105328;1267;107227;-75
2023/11/07 11:33:26;;;;;;;11.30;4.10;;;;;;;12.35;68.68;98959.15;105361;1257;95322;-74
2023/11/07 11:35:55;;;;;;;9.90;3.70;;;;;;;12.35;68.59;98956.29;105710;1254;96215;-75
2023/11/07 11:38:41;;;;;;;12.80;4.10;;;;;;;12.35;68.65;98955.14;105735;1254;108076;-75
2023/11/07 11:41:10;;;;;;;8.70;3.80;;;;;;;12.34;68.66;98955.69;105646;1251;95901;-74
2023/11/07 11:44:12;;;;;;;8.60;4.20;;;;;;;12.35;68.68;98953.31;105513;1251;107639;-75
2023/11/07 11:46:40;;;;;;;7.70;3.70;;;;;;;12.36;68.59;98954.50;105798;1257;96201;-76
2023/11/07 11:49:11;;;;;;;11.10;4.50;;;;;;;12.35;68.53;98955.45;105690;1251;95229;-75
2023/11/07 11:51:42;;;;;;;11.30;4.10;;;;;;;12.35;68.60;98954.52;105766;1254;107488;-74
2023/11/07 11:54:11;;;;;;;9.70;4.10;;;;;;;12.36;68.60;98953.38;105766;1256;95979;-74
2023/11/07 11:56:49;;;;;;;7.60;3.70;;;;;;;12.38;68.57;98957.91;105544;1257;107629;-74
2023/11/07 11:59:19;;;;;;;10.50;4.10;;;;;;;12.38;68.51;98950.98;105892;1252;95252;-74
2023/11/07 12:01:56;;;;;;;12.80;4.40;;;;;;;12.39;68.66;98951.44;105785;1252;95252;-75
2023/11/07 12:04:41;;;;;;;9.40;3.80;;;;;;;12.41;68.69;98953.35;105683;1254;108027;-75
2023/11/07 12:07:09;;;;;;;11.90;4.40;;;;;;;12.42;68.57;98951.30;105398;1257;95509;-76
2023/11/07 12:09:47;;;;;;;9.90;4.10;;;;;;;12.43;68.56;98950.34;105482;1250;106880;-78
2023/11/07 12:12:17;;;;;;;7.20;3.70;;;;;;;12.44;68.55;98949.92;105663;1254;96164;-77
2023/11/07 12:14:59;;;;;;;7.30;3.60;;;;;;;12.45;68.56;98950.76;105515;1256;95313;-75
2023/11/07 12:17:41;;;;;;;7.70;3.40;;;;;;;12.45;68.44;98950.91;105493;1253;107969;-74
2023/11/07 12:20:14;;;;;;;9.50;3.60;;;;;;;12.44;68.41;98951.19;105722;1253;95514;-77
2023/11/07 12:23:11;;;;;;;10.30;3.60;;;;;;;12.42;68.52;98946.17;105519;1256;107390;-74
2023/11/07 12:25:57;;;;;;;9.20;3.50;;;;;;;12.42;68.44;98947.61;105480;1259;95259;-73
2023/11/07 12:28:25;;;;;;;11.40;3.80;;;;;;;12.43;68.41;98946.45;105720;1254;96274;-74
2023/11/07 12:30:57;;;;;;;9.80;3.80;;;;;;;12.43;68.43;98940.38;105652;1253;108023;-75
2023/11/07 12:33:25;;;;;;;6.90;3.60;;;;;;;12.43;68.36;98938.80;105643;1251;96245;-74
2023/11/07 12:35:56;;;;;;;9.20;3.50;;;;;;;12.43;68.32;98937.06;105699;1254;107217;-75
2023/11/07 12:38:24;;;;;;;7.40;3.40;;;;;;;12.41;68.36;98934.17;105293;1257;95256;-74
2023/11/07 12:40:53;;;;;;;9.00;3.50;;;;;;;12.40;68.33;98934.94;105603;1254;95230;-75
2023/11/07 12:43:23;;;;;;;10.10;3.90;;;;;;;12.40;68.28;98934.29;105497;1254;108500;-75
2023/11/07 12:45:52;;;;;;;8.60;4.00;;;;;;;12.38;68.30;98929.79;105458;1256;96104;-73
2023/11/07 12:48:26;;;;;;;10.40;3.70;;;;;;;12.37;68.25;98928.59;105793;1256;107661;-77
2023/11/07 12:51:06;;;;;;;8.10;3.70;;;;;;;12.38;68.28;98927.88;105686;1254;95355;-76
2023/11/07 12:53:46;;;;;;;8.70;3.60;;;;;;;12.38;68.41;98926.63;105448;1251;95266;-79
2023/11/07 12:56:30;;;;;;;9.80;4.40;;;;;;;12.37;68.33;98923.14;105688;1254;108165;-74
2023/11/07 12:59:28;;;;;;;8.90;4.00;;;;;;;12.35;68.23;98923.83;105514;1263;95160;-75
2023/11/07 13:01:56;;;;;;;7.60;3.70;;;;;;;12.33;68.28;98925.00;105940;1251;107169;-77
2023/11/07 13:04:24;;;;;;;9.30;3.80;;;;;;;12.31;68.24;98923.79;105606;1253;95321;-74
2023/11/07 13:07:01;;;;;;;9.30;3.80;;;;;;;12.29;68.18;98925.69;105396;1256;95296;-74
2023/11/07 13:09:37;;;;;;;11.10;5.00;;;;;;;12.28;68.26;98921.88;105764;1253;108630;-75
2023/11/07 13:12:09;;;;;;;8.70;3.90;;;;;;;12.27;68.27;98917.52;105412;1257;95160;-74
2023/11/07 13:14:38;;;;;;;11.80;4.20;;;;;;;12.26;68.31;98924.50;105579;1273;107698;-74
2023/11/07 13:17:08;;;;;;;9.90;4.60;;;;;;;12.25;68.27;98926.42;105652;1256;96158;-74
2023/11/07 13:19:38;;;;;;;11.10;4.20;;;;;;;12.24;68.25;98927.05;105640;1257;95294;-74
2023/11/07 13:22:09;;;;;;;8.20;3.60;;;;;;;12.24;68.26;98924.23;105598;1256;110104;-75
2023/11/07 13:24:38;;;;;;;11.90;4.70;;;;;;;12.22;68.25;98928.23;105660;1257;95208;-74
2023/11/07 13:27:06;;;;;;;10.20;4.20;;;;;;;12.21;68.29;98929.02;105740;1257;106493;-78
2023/11/07 13:29:37;;;;;;;10.40;4.20;;;;;;;12.19;68.21;98929.36;105540;1254;95281;-74
2023/11/07 13:32:05;;;;;;;9.70;4.70;;;;;;;12.18;68.26;98930.52;105447;1251;95277;-76
2023/11/07 13:34:33;;;;;;;13.90;5.00;;;;;;;12.16;68.31;98929.75;105529;1256;108792;-73
2023/11/07 13:37:04;;;;;;;18.00;6.20;;;;;;;12.15;68.22;98928.98;105694;1256;95181;-73
2023/11/07 13:39:32;;;;;;;17.00;5.80;;;;;;;12.13;68.17;98927.05;105584;1255;107193;-75
2023/11/07 13:42:01;;;;;;;11.30;4.80;;;;;;;12.11;68.23;98926.08;105770;1251;95242;-74
2023/11/07 13:44:29;;;;;;;11.60;4.90;;;;;;;12.11;68.22;98925.24;105810;1250;95454;-75
2023/11/07 13:46:57;;;;;;;13.00;4.80;;;;;;;12.09;68.30;98918.64;105570;1251;108974;-75
2023/11/07 13:49:25;;;;;;;13.30;5.00;;;;;;;12.07;68.29;98917.52;105490;1256;95451;-73
2023/11/07 13:51:54;;;;;;;14.70;5.30;;;;;;;12.04;68.33;98912.59;105855;1254;107672;-74
2023/11/07 13:54:23;;;;;;;13.40;4.80;;;;;;;12.01;68.25;98911.75;105531;1263;95256;-74
2023/11/07 13:56:51;;;;;;;11.50;4.60;;;;;;;11.98;68.31;98908.98;105588;1266;95320;-72
2023/11/07 13:59:19;;;;;;;14.00;5.20;;;;;;;11.95;68.20;98906.02;105585;1254;108335;-74
2023/11/07 14:01:47;;;;;;;12.80;4.70;;;;;;;11.93;68.22;98902.68;105774;1254;95447;-75
2023/11/07 14:04:18;;;;;;;14.30;5.60;;;;;;;11.90;68.38;98901.48;105561;1251;107553;-75
2023/11/07 14:06:46;;;;;;;14.70;5.10;;;;;;;11.86;68.34;98899.11;105940;1254;95258;-76
2023/11/07 14:09:14;;;;;;;12.40;5.50;;;;;;;11.82;68.26;98900.48;105800;1250;95254;-73
2023/11/07 14:11:45;;;;;;;15.00;6.10;;;;;;;11.79;68.41;98905.01;105904;1258;108095;-73
2023/11/07 14:14:17;;;;;;;13.40;5.60;;;;;;;11.74;68.25;98902.69;105759;1253;95236;-75
2023/11/07 14:16:45;;;;;;;17.60;6.20;;;;;;;11.72;68.21;98907.71;105342;1255;107432;-75
2023/11/07 14:19:13;;;;;;;20.00;6.90;;;;;;;11.67;68.29;98909.66;105689;1254;95243;-75
2023/11/07 14:21:41;;;;;;;21.40;8.40;;;;;;;11.63;68.22;98911.38;105744;1263;95250;-74
2023/11/07 14:24:09;;;;;;;21.90;7.80;;;;;;;11.59;68.26;98913.34;105669;1253;108370;-77
2023/11/07 14:26:37;;;;;;;17.80;7.50;;;;;;;11.54;68.31;98917.27;105722;1255;95185;-75
2023/11/07 14:29:06;;;;;;;15.00;6.20;;;;;;;11.50;68.29;98919.22;105570;1265;107760;-75
2023/11/07 14:31:55;;;;;;;22.50;8.50;;;;;;;11.43;68.27;98923.62;106440;1263;95242;-73
2023/11/07 14:34:23;;;;;;;19.40;6.80;;;;;;;11.38;68.30;98925.44;105762;1254;95233;-73
2023/11/07 14:36:54;;;;;;;17.10;6.80;;;;;;;11.32;68.15;98927.55;105713;1254;108369;-74
2023/11/07 14:39:23;;;;;;;22.60;8.90;;;;;;;11.25;68.28;98932.27;105659;1260;95437;-75
2023/11/07 14:41:51;;;;;;;22.30;9.70;;;;;;;11.19;68.24;98930.10;105466;1258;107288;-75
2023/11/07 14:44:19;;;;;;;24.30;9.80;;;;;;;11.12;68.36;98927.84;105709;1254;96189;-77
2023/11/07 14:46:50;;;;;;;23.00;10.20;;;;;;;11.05;68.31;98926.39;105516;1256;95214;-75
2023/11/07 14:49:23;;;;;;;22.50;9.20;;;;;;;10.99;68.25;98930.56;105429;1257;108623;-74
2023/11/07 14:51:52;;;;;;;17.70;7.30;;;;;;;10.92;68.34;98932.73;105664;1254;96139;-75
2023/11/07 14:54:20;;;;;;;19.00;7.50;;;;;;;10.85;68.41;98936.01;105475;1257;107702;-74
2023/11/07 14:56:51;;;;;;;18.30;6.60;;;;;;;10.78;68.37;98940.66;105797;1263;95324;-73
2023/11/07 14:59:31;;;;;;;17.40;6.70;;;;;;;10.69;68.32;98942.90;105756;1251;95262;-74
2023/11/07 15:01:59;;;;;;;18.60;7.50;;;;;;;10.63;68.38;98943.22;105699;1256;108641;-73
2023/11/07 15:04:29;;;;;;;18.40;7.00;;;;;;;10.58;68.29;98945.90;105446;1255;96056;-78
2023/11/07 15:06:58;;;;;;;17.80;7.50;;;;;;;10.50;68.38;98947.17;105744;1265;107739;-74
2023/11/07 15:09:26;;;;;;;18.30;7.40;;;;;;;10.44;68.36;98949.73;105742;1258;95240;-79
2023/11/07 15:11:54;;;;;;;16.80;6.70;;;;;;;10.39;68.40;98953.47;105922;1253;95239;-74
2023/11/07 15:31:55;;;;;;;;;;;;;;;;;;;;;
2023/11/07 15:43:52;;;;;;;;;;;;;;;;;;;;;
2023/11/07 15:54:00;;;;;;;;;;;;;;;;;;;;;
2023/11/07 16:00:38;;;;;;;;;;;;;;;;;;;;;
2023/11/07 16:35:09;;;;;;;;;;;;;;;;;;;;;
2023/11/07 16:47:48;;;;;;;;;;;;;;;;;;;;;
2023/11/07 18:25:22;;;;;;;;;;;;;;;;;;;;;
2023/11/07 18:32:41;;;;;;;;;;;;;;;;;;;;;
2023/11/07 18:40:46;;;;;;;;;;;;;;;;;;;;;
2023/11/07 18:57:32;;;;;;;;;;;;;;;;;;;;;
2023/11/07 19:00:49;;;;;;;;;;;;;;;;;;;;;
2023/11/07 19:19:31;;;;;;;;;;;;;;;;;;;;;
2023/11/07 20:04:32;;;;;;;;;;;;;;;;;;;;;
2023/11/07 20:14:58;;;;;;;;;;;;;;;;;;;;;
2023/11/07 20:18:54;;;;;;;;;;;;;;;;;;;;;
2023/11/07 20:38:24;;;;;;;;;;;;;;;;;;;;;
2023/11/07 20:41:38;;;;;;;;;;;;;;;;;;;;;
2023/11/07 22:48:22;;;;;;;;;;;;;;;;;;;;;
